LiveATC.Net - Listen to live air traffic control over the Internet! Contact LiveATC.net for advertising information


ICAO: KOCF  IATA: OCF   Airport: Ocala International Airport-Jim Taylor Field
City: Ocala   State/Province: Florida
Country: United States   Continent: North America
KOCF METAR Weather: KOCF 241750Z 17004KT 7SM BKN050 27/17 A3000
KOCF Flight Activity (FlightAware)
KOCF Airport Info   (AirNav) (iFlightPlanner)
KOCF Gnd/Twr/App
Feed Status: DOWN
Last heard on: 2014-02-28 13:44:04 (55 days 4 hours 33 minutes ago)
KOCF Gnd/Twr/App Audio Archives
FacilityFrequency
Jacksonville Approach (OCF RCO)118.600
Ocala Ground121.400
Ocala Tower119.250
Unicom123.000


NOTICE

Unauthorized use prohibited. See LiveATC.net Terms of Service


Find LiveATC Audio Streams


Airport/ARTCC Code

Frequency
(e.g., 124.400, 128.75)
Site-wide search

Browse LiveATC Feeds
LiveATC Coverage Map
Top 50 LiveATC Feeds
Bad Weather Areas

LiveATC FAQ
Offer a LiveATC Feed
Contact LiveATC.net
Press Inquiries

LiveATC on iPhone
LiveATC on Android

LiveATC Mobile
(Mobile browser)

ATC Audio Archives
Interesting Recordings

LiveATC Forums


Home Page
About LiveATC.net
Make a Donation
LiveATC Bookstore

Terms of Use
Privacy Policy

ATC/Radar Sites
U.S. ARTCC Freqs
Canadian Air Freqs

AIRMETs/SIGMETs

FAA Airport Status
Nat'l Airspace Status
Arrival Demand Charts


Server Software By:
Icecast.org
Liquidsoap

Please make a donation to help us keep growing!